createdAt,value
2018-07-14T00:01:45.611Z,8.10
2018-07-14T00:04:13.997Z,8.17
2018-07-14T00:06:42.335Z,7.87
2018-07-14T00:09:10.643Z,8.10
2018-07-14T00:11:39.027Z,8.33
2018-07-14T00:14:07.498Z,7.80
2018-07-14T00:16:35.830Z,8.23
2018-07-14T00:19:04.252Z,8.17
2018-07-14T00:21:32.596Z,9.63
2018-07-14T00:24:00.926Z,7.87
2018-07-14T00:26:29.374Z,7.53
2018-07-14T00:28:57.758Z,7.87
2018-07-14T00:31:26.104Z,8.70
2018-07-14T00:33:54.422Z,8.50
2018-07-14T00:36:22.736Z,7.53
2018-07-14T00:38:51.231Z,7.73
2018-07-14T00:41:19.549Z,7.60
2018-07-14T00:43:47.889Z,8.10
2018-07-14T00:46:16.255Z,7.87
2018-07-14T00:48:44.556Z,7.50
2018-07-14T00:51:12.866Z,7.20
2018-07-14T00:53:41.265Z,7.73
2018-07-14T00:56:09.636Z,9.67
2018-07-14T00:58:37.986Z,7.20
2018-07-14T01:01:06.666Z,8.80
2018-07-14T01:03:34.995Z,7.77
2018-07-14T01:06:03.331Z,7.73
2018-07-14T01:08:31.719Z,6.97
2018-07-14T01:11:00.046Z,8.17
2018-07-14T01:13:28.475Z,8.00
2018-07-14T01:15:56.853Z,7.10
2018-07-14T01:18:25.176Z,7.27
2018-07-14T01:20:53.559Z,7.33
2018-07-14T01:23:21.984Z,8.67
2018-07-14T01:25:50.364Z,7.87
2018-07-14T01:28:18.720Z,7.10
2018-07-14T01:30:47.144Z,7.47
2018-07-14T01:33:15.518Z,7.73
2018-07-14T01:35:43.858Z,8.43
2018-07-14T01:38:12.222Z,8.20
2018-07-14T01:40:40.584Z,8.20
2018-07-14T01:43:08.972Z,9.33
2018-07-14T01:45:37.350Z,7.97
2018-07-14T01:48:05.801Z,8.00
2018-07-14T01:50:34.181Z,9.53
2018-07-14T01:53:02.535Z,8.13
2018-07-14T01:55:30.903Z,8.27
2018-07-14T01:57:59.299Z,8.17
2018-07-14T02:00:27.637Z,8.47
2018-07-14T02:02:55.979Z,7.60
2018-07-14T02:05:24.339Z,7.70
2018-07-14T02:07:52.690Z,8.07
2018-07-14T02:10:20.994Z,9.33
2018-07-14T02:12:49.347Z,9.23
2018-07-14T02:15:17.696Z,8.30
2018-07-14T02:17:46.059Z,8.43
2018-07-14T02:20:14.423Z,11.43
2018-07-14T02:22:42.818Z,8.80
2018-07-14T02:25:11.173Z,8.13
2018-07-14T02:27:39.503Z,8.63
2018-07-14T02:30:07.927Z,8.33
2018-07-14T02:32:36.255Z,8.63
2018-07-14T02:35:04.600Z,7.43
2018-07-14T02:37:32.953Z,7.87
2018-07-14T02:40:01.391Z,8.60
2018-07-14T02:42:29.794Z,8.87
2018-07-14T02:44:58.235Z,10.07
2018-07-14T02:47:26.827Z,8.40
2018-07-14T02:49:55.187Z,8.03
2018-07-14T02:52:23.518Z,8.50
2018-07-14T02:54:51.835Z,8.53
2018-07-14T02:57:19.906Z,9.10
2018-07-14T02:59:48.318Z,8.87
2018-07-14T03:02:16.626Z,8.73
2018-07-14T03:04:44.992Z,8.37
2018-07-14T03:07:13.311Z,8.60
2018-07-14T03:09:41.669Z,7.87
2018-07-14T03:12:10.113Z,8.97
2018-07-14T03:14:38.422Z,8.77
2018-07-14T03:17:07.159Z,9.10
2018-07-14T03:19:35.564Z,9.47
2018-07-14T03:22:03.943Z,9.63
2018-07-14T03:24:32.299Z,8.20
2018-07-14T03:27:00.654Z,9.67
2018-07-14T03:29:28.942Z,9.50
2018-07-14T03:31:57.295Z,9.33
2018-07-14T03:34:25.673Z,9.27
2018-07-14T03:36:53.995Z,9.50
2018-07-14T03:39:22.338Z,8.80
2018-07-14T03:41:50.420Z,8.57
2018-07-14T03:44:18.746Z,9.00
2018-07-14T03:46:47.062Z,8.23
2018-07-14T03:49:15.394Z,8.67
2018-07-14T03:51:43.764Z,9.27
2018-07-14T03:54:12.070Z,9.37
2018-07-14T03:56:40.156Z,9.07
2018-07-14T03:59:08.506Z,9.53
2018-07-14T04:01:36.834Z,9.50
2018-07-14T04:04:05.159Z,9.70
2018-07-14T04:06:33.213Z,8.70
2018-07-14T04:09:01.700Z,9.10
2018-07-14T04:11:30.069Z,9.20
2018-07-14T04:13:58.434Z,8.73
2018-07-14T04:16:26.867Z,10.17
2018-07-14T04:18:55.252Z,8.60
2018-07-14T04:21:23.624Z,8.23
2018-07-14T04:23:52.007Z,10.00
2018-07-14T04:26:20.370Z,9.27
2018-07-14T04:28:48.735Z,8.47
2018-07-14T04:31:17.071Z,10.00
2018-07-14T04:33:45.424Z,8.93
2018-07-14T04:36:13.762Z,9.07
2018-07-14T04:38:42.194Z,8.13
2018-07-14T04:41:10.547Z,8.57
2018-07-14T04:43:38.883Z,8.70
2018-07-14T04:46:07.404Z,9.50
2018-07-14T04:48:35.787Z,8.70
2018-07-14T04:51:04.164Z,10.07
2018-07-14T04:53:32.519Z,12.40
2018-07-14T04:56:00.855Z,9.73
2018-07-14T04:58:29.228Z,8.47
2018-07-14T05:00:57.676Z,9.47
2018-07-14T05:03:26.027Z,9.23
2018-07-14T05:05:54.381Z,9.57
2018-07-14T05:08:22.771Z,9.50
2018-07-14T05:10:51.176Z,9.53
2018-07-14T05:13:19.229Z,9.37
2018-07-14T05:15:47.588Z,10.33
2018-07-14T05:18:15.967Z,10.13
2018-07-14T05:20:44.305Z,9.37
2018-07-14T05:23:12.641Z,9.60
2018-07-14T05:25:41.016Z,10.43
2018-07-14T05:28:09.633Z,12.83
2018-07-14T05:30:38.044Z,9.83
2018-07-14T05:33:06.503Z,9.87
2018-07-14T05:35:35.234Z,11.27
2018-07-14T05:38:03.866Z,15.63
2018-07-14T05:40:32.194Z,9.90
2018-07-14T05:43:00.788Z,9.63
2018-07-14T05:45:29.188Z,10.90
2018-07-14T05:47:57.579Z,10.83
2018-07-14T05:50:25.881Z,10.87
2018-07-14T05:52:54.273Z,12.57
2018-07-14T05:55:22.979Z,12.40
2018-07-14T05:57:51.303Z,11.43
2018-07-14T06:00:19.761Z,11.00
2018-07-14T06:02:48.080Z,11.07
2018-07-14T06:05:16.397Z,14.37
2018-07-14T06:07:44.961Z,11.33
2018-07-14T06:10:13.271Z,11.20
2018-07-14T06:12:41.585Z,11.60
2018-07-14T06:15:09.922Z,11.40
2018-07-14T06:17:38.275Z,11.40
2018-07-14T06:20:08.284Z,10.50
2018-07-14T06:22:36.693Z,11.80
2018-07-14T06:25:05.040Z,11.37
2018-07-14T06:27:33.495Z,11.80
2018-07-14T06:30:01.865Z,11.67
2018-07-14T06:32:30.194Z,10.97
2018-07-14T06:34:58.522Z,10.53
2018-07-14T06:37:26.918Z,11.23
2018-07-14T06:39:55.563Z,12.03
2018-07-14T06:42:24.044Z,12.10
2018-07-14T06:44:52.511Z,8.33
2018-07-14T06:47:20.949Z,10.03
2018-07-14T06:49:49.302Z,10.13
2018-07-14T06:52:17.793Z,8.38
2018-07-14T06:54:46.197Z,10.00
2018-07-14T06:57:15.532Z,7.58
2018-07-14T06:59:43.877Z,7.58
2018-07-14T07:02:12.244Z,10.03
2018-07-14T07:04:40.451Z,10.30
2018-07-14T07:07:08.919Z,6.87
2018-07-14T07:09:37.277Z,8.38
2018-07-14T07:12:05.359Z,8.68
2018-07-14T07:14:33.558Z,7.25
2018-07-14T07:17:01.998Z,6.53
2018-07-14T07:19:31.652Z,7.40
2018-07-14T07:22:00.968Z,8.50
2018-07-14T07:24:30.021Z,6.95
2018-07-14T07:26:58.694Z,9.18
2018-07-14T07:29:28.369Z,6.87
2018-07-14T07:31:57.252Z,5.67
2018-07-14T07:34:27.172Z,7.97
2018-07-14T07:36:55.789Z,5.47
2018-07-14T07:39:24.251Z,5.33
2018-07-14T07:41:53.020Z,9.00
2018-07-14T07:44:21.518Z,6.58
2018-07-14T07:46:50.052Z,5.08
2018-07-14T07:49:22.132Z,8.63
2018-07-14T07:51:50.696Z,7.78
2018-07-14T07:54:18.848Z,5.92
2018-07-14T07:56:47.799Z,5.22
2018-07-14T07:59:16.742Z,5.97
2018-07-14T08:01:45.875Z,9.03
2018-07-14T08:04:15.050Z,7.90
2018-07-14T08:06:44.330Z,5.95
2018-07-14T08:09:14.366Z,5.92
2018-07-14T08:11:43.557Z,5.90
2018-07-14T08:14:12.590Z,5.92
2018-07-14T08:16:42.286Z,7.95
2018-07-14T08:19:12.177Z,9.00
2018-07-14T08:21:41.234Z,5.67
2018-07-14T08:24:10.338Z,7.05
2018-07-14T08:26:39.585Z,6.75
2018-07-14T08:29:08.564Z,5.37
2018-07-14T08:31:37.602Z,7.45
2018-07-14T08:34:07.311Z,7.72
2018-07-14T08:36:36.380Z,7.58
2018-07-14T08:39:06.746Z,6.45
2018-07-14T08:41:35.617Z,6.15
2018-07-14T08:44:04.709Z,7.05
2018-07-14T08:46:33.909Z,6.70
2018-07-14T08:49:02.526Z,5.95
2018-07-14T08:51:31.626Z,6.28
2018-07-14T08:54:01.661Z,5.97
2018-07-14T08:56:31.854Z,8.73
2018-07-14T08:59:00.897Z,5.85
2018-07-14T09:01:30.020Z,6.83
2018-07-14T09:04:00.942Z,6.80
2018-07-14T09:06:29.843Z,6.50
2018-07-14T09:09:00.672Z,6.40
2018-07-14T09:11:30.721Z,6.67
2018-07-14T09:13:59.417Z,6.17
2018-07-14T09:16:27.816Z,6.08
2018-07-14T09:18:56.274Z,7.70
2018-07-14T09:21:24.646Z,7.78
2018-07-14T09:23:53.015Z,8.10
2018-07-14T09:26:21.638Z,7.70
2018-07-14T09:28:50.046Z,7.70
2018-07-14T09:31:18.527Z,7.45
2018-07-14T09:33:47.262Z,5.85
2018-07-14T09:36:15.659Z,5.92
2018-07-14T09:38:44.714Z,10.08
2018-07-14T09:41:13.137Z,8.38
2018-07-14T09:43:41.663Z,5.72
2018-07-14T09:46:10.296Z,7.87
2018-07-14T09:48:38.732Z,8.10
2018-07-14T09:51:07.544Z,8.20
2018-07-14T09:53:36.043Z,6.20
2018-07-14T09:56:04.535Z,5.28
2018-07-14T09:58:33.126Z,6.05
2018-07-14T10:01:08.369Z,7.03
2018-07-14T10:03:37.384Z,5.42
2018-07-14T10:06:05.849Z,3.92
2018-07-14T10:08:34.310Z,5.05
2018-07-14T10:11:02.698Z,5.37
2018-07-14T10:13:31.271Z,5.05
2018-07-14T10:15:59.643Z,4.25
2018-07-14T10:18:28.647Z,5.55
2018-07-14T10:20:57.454Z,3.67
2018-07-14T10:23:25.934Z,4.58
2018-07-14T10:25:54.843Z,4.65
2018-07-14T10:28:23.531Z,6.35
2018-07-14T10:30:52.137Z,4.10
2018-07-14T10:33:20.926Z,4.53
2018-07-14T10:35:49.339Z,3.60
2018-07-14T10:38:18.218Z,19.55
2018-07-14T10:40:46.580Z,4.15
2018-07-14T10:43:14.921Z,6.67
2018-07-14T10:45:43.545Z,4.17
2018-07-14T10:48:11.842Z,5.37
2018-07-14T10:50:40.214Z,3.52
2018-07-14T10:53:08.761Z,3.35
2018-07-14T10:55:39.533Z,5.42
2018-07-14T10:58:09.922Z,8.30
2018-07-14T11:00:38.256Z,6.10
2018-07-14T11:03:06.708Z,5.95
2018-07-14T11:05:34.999Z,4.40
2018-07-14T11:08:03.395Z,3.85
2018-07-14T11:10:31.689Z,3.55
2018-07-14T11:13:00.078Z,4.60
2018-07-14T11:15:29.473Z,7.40
2018-07-14T11:17:57.855Z,3.40
2018-07-14T11:20:26.265Z,4.15
2018-07-14T11:22:54.567Z,3.70
2018-07-14T11:25:22.868Z,4.42
2018-07-14T11:27:51.200Z,4.33
2018-07-14T11:30:19.587Z,8.48
2018-07-14T11:32:47.866Z,3.67
2018-07-14T11:35:15.919Z,4.87
2018-07-14T11:37:44.250Z,3.00
2018-07-14T11:40:12.641Z,3.05
2018-07-14T11:42:40.937Z,3.10
2018-07-14T11:45:09.217Z,4.35
2018-07-14T11:47:37.585Z,4.87
2018-07-14T11:50:06.291Z,3.47
2018-07-14T11:52:34.415Z,3.90
2018-07-14T11:55:03.460Z,4.05
2018-07-14T11:57:31.767Z,4.45
2018-07-14T12:00:00.099Z,2.70
2018-07-14T12:02:28.434Z,4.15
2018-07-14T12:04:56.794Z,4.40
2018-07-14T12:07:25.101Z,4.03
2018-07-14T12:09:55.399Z,4.22
2018-07-14T12:12:23.989Z,5.62
2018-07-14T12:14:52.284Z,2.83
2018-07-14T12:17:20.675Z,4.10
2018-07-14T12:19:48.980Z,5.58
2018-07-14T12:22:17.431Z,2.75
2018-07-14T12:24:45.754Z,2.60
2018-07-14T12:27:14.143Z,3.52
2018-07-14T12:29:42.483Z,3.80
2018-07-14T12:32:10.889Z,5.35
2018-07-14T12:34:39.307Z,2.45
2018-07-14T12:37:07.636Z,4.75
2018-07-14T12:39:36.066Z,2.60
2018-07-14T12:42:04.706Z,3.37
2018-07-14T12:44:33.101Z,6.47
2018-07-14T12:47:01.483Z,4.80
2018-07-14T12:49:29.862Z,4.78
2018-07-14T12:51:58.247Z,6.55
2018-07-14T12:54:26.633Z,4.12
2018-07-14T12:56:54.994Z,3.10
2018-07-14T12:59:23.335Z,6.42
2018-07-14T13:01:51.723Z,2.42
2018-07-14T13:04:19.841Z,2.15
2018-07-14T13:06:48.213Z,5.28
2018-07-14T13:09:16.611Z,2.60
2018-07-14T13:11:45.040Z,2.83
2018-07-14T13:14:13.397Z,2.02
2018-07-14T13:16:41.845Z,1.65
2018-07-14T13:19:10.225Z,2.15
2018-07-14T13:21:38.726Z,1.90
2018-07-14T13:24:07.085Z,2.27
2018-07-14T13:26:35.401Z,3.87
2018-07-14T13:29:03.876Z,2.65
2018-07-14T13:31:32.294Z,2.37
2018-07-14T13:34:00.705Z,2.90
2018-07-14T13:36:29.163Z,3.55
2018-07-14T13:38:57.477Z,3.70
2018-07-14T13:41:25.855Z,3.10
2018-07-14T13:43:54.159Z,2.85
2018-07-14T13:46:22.747Z,2.72
2018-07-14T13:48:51.079Z,4.17
2018-07-14T13:51:19.602Z,2.40
2018-07-14T13:53:47.939Z,2.27
2018-07-14T13:56:16.470Z,2.45
2018-07-14T13:58:44.882Z,3.15
2018-07-14T14:01:13.204Z,3.87
2018-07-14T14:03:41.613Z,3.67
2018-07-14T14:06:09.977Z,2.87
2018-07-14T14:08:38.378Z,2.70
2018-07-14T14:11:06.785Z,6.22
2018-07-14T14:13:35.177Z,4.22
2018-07-14T14:16:03.530Z,3.00
2018-07-14T14:18:31.927Z,2.40
2018-07-14T14:21:00.240Z,2.58
2018-07-14T14:23:28.585Z,2.72
2018-07-14T14:25:56.948Z,2.25
2018-07-14T14:28:25.324Z,2.30
2018-07-14T14:30:53.672Z,5.15
2018-07-14T14:33:21.984Z,2.08
2018-07-14T14:35:50.341Z,2.87
2018-07-14T14:38:18.692Z,3.08
2018-07-14T14:40:47.042Z,2.15
2018-07-14T14:43:15.365Z,2.05
2018-07-14T14:45:43.670Z,2.30
2018-07-14T14:48:12.074Z,2.30
2018-07-14T14:50:40.500Z,2.75
2018-07-14T14:53:09.071Z,2.42
2018-07-14T14:55:37.167Z,3.00
2018-07-14T14:58:05.914Z,2.12
2018-07-14T15:00:34.312Z,2.35
2018-07-14T15:03:02.647Z,2.65
2018-07-14T15:05:31.007Z,2.22
2018-07-14T15:07:59.398Z,2.52
2018-07-14T15:10:27.746Z,2.17
2018-07-14T15:12:56.206Z,3.60
2018-07-14T15:15:24.600Z,2.47
2018-07-14T15:17:52.918Z,2.22
2018-07-14T15:20:21.331Z,2.17
2018-07-14T15:22:49.728Z,2.47
2018-07-14T15:25:18.182Z,2.35
2018-07-14T15:27:46.498Z,2.50
2018-07-14T15:30:14.893Z,3.40
2018-07-14T15:32:43.277Z,2.05
2018-07-14T15:35:11.597Z,2.40
2018-07-14T15:37:39.901Z,4.47
2018-07-14T15:40:08.269Z,1.92
2018-07-14T15:42:36.618Z,2.30
2018-07-14T15:45:05.910Z,3.27
2018-07-14T15:47:34.264Z,1.95
2018-07-14T15:50:02.639Z,2.67
2018-07-14T15:52:30.976Z,2.95
2018-07-14T15:54:59.365Z,2.47
2018-07-14T15:57:27.711Z,3.00
2018-07-14T15:59:56.087Z,5.60
2018-07-14T16:02:24.415Z,3.70
2018-07-14T16:04:52.943Z,2.42
2018-07-14T16:07:21.328Z,3.75
2018-07-14T16:09:49.631Z,3.27
2018-07-14T16:12:17.941Z,2.98
2018-07-14T16:14:46.277Z,2.52
2018-07-14T16:17:14.674Z,3.08
2018-07-14T16:19:43.054Z,3.05
2018-07-14T16:22:11.388Z,3.17
2018-07-14T16:24:39.839Z,2.27
2018-07-14T16:27:08.154Z,4.65
2018-07-14T16:29:36.481Z,2.45
2018-07-14T16:32:05.177Z,5.00
2018-07-14T16:34:33.490Z,3.83
2018-07-14T16:37:01.903Z,3.95
2018-07-14T16:39:30.241Z,2.77
2018-07-14T16:41:58.783Z,3.12
2018-07-14T16:44:26.851Z,3.33
2018-07-14T16:46:55.177Z,4.15
2018-07-14T16:49:23.246Z,5.00
2018-07-14T16:51:51.733Z,2.07
2018-07-14T16:54:20.166Z,4.07
2018-07-14T16:56:48.533Z,3.60
2018-07-14T16:59:16.870Z,3.80
2018-07-14T17:01:45.278Z,4.53
2018-07-14T17:04:13.582Z,3.13
2018-07-14T17:06:41.951Z,2.00
2018-07-14T17:09:10.793Z,4.97
2018-07-14T17:11:40.788Z,3.60
2018-07-14T17:14:09.503Z,2.43
2018-07-14T17:16:37.564Z,2.40
2018-07-14T17:19:06.090Z,2.40
2018-07-14T17:21:34.445Z,3.17
2018-07-14T17:24:02.850Z,3.33
2018-07-14T17:26:31.195Z,2.27
2018-07-14T17:28:59.543Z,2.00
2018-07-14T17:31:27.994Z,3.07
2018-07-14T17:33:56.079Z,2.40
2018-07-14T17:36:24.413Z,2.20
2018-07-14T17:38:52.851Z,4.13
2018-07-14T17:41:21.178Z,4.67
2018-07-14T17:43:49.771Z,3.03
2018-07-14T17:46:18.105Z,2.03
2018-07-14T17:48:46.178Z,5.77
2018-07-14T17:51:14.514Z,3.40
2018-07-14T17:53:42.834Z,2.63
2018-07-14T17:56:10.861Z,2.70
2018-07-14T17:58:39.381Z,3.00
2018-07-14T18:01:07.718Z,3.77
2018-07-14T18:03:36.131Z,2.83
2018-07-14T18:06:04.552Z,2.50
2018-07-14T18:08:32.982Z,2.30
2018-07-14T18:11:01.285Z,4.30
2018-07-14T18:13:29.587Z,2.23
2018-07-14T18:15:57.914Z,3.20
2018-07-14T18:18:26.205Z,3.27
2018-07-14T18:20:54.598Z,3.47
2018-07-14T18:23:22.903Z,2.53
2018-07-14T18:25:51.203Z,4.07
2018-07-14T18:28:19.500Z,3.73
2018-07-14T18:30:47.818Z,4.67
2018-07-14T18:33:16.113Z,3.63
2018-07-14T18:35:44.394Z,4.00
2018-07-14T18:38:12.806Z,5.47
2018-07-14T18:40:41.108Z,3.33
2018-07-14T18:43:09.393Z,5.83
2018-07-14T18:45:37.777Z,4.60
2018-07-14T18:48:06.079Z,4.50
2018-07-14T18:50:34.434Z,5.00
2018-07-14T18:53:02.735Z,3.63
2018-07-14T18:55:31.115Z,3.00
2018-07-14T18:57:59.453Z,5.30
2018-07-14T19:00:27.789Z,7.67
2018-07-14T19:02:56.143Z,3.50
2018-07-14T19:05:24.474Z,3.93
2018-07-14T19:07:52.861Z,4.67
2018-07-14T19:10:21.180Z,4.90
2018-07-14T19:12:50.856Z,6.53
2018-07-14T19:15:19.593Z,6.67
2018-07-14T19:17:47.910Z,9.07
2018-07-14T19:20:16.458Z,5.93
2018-07-14T19:22:44.964Z,3.70
2018-07-14T19:25:13.278Z,5.07
2018-07-14T19:27:41.312Z,5.93
2018-07-14T19:30:09.657Z,3.70
2018-07-14T19:32:38.048Z,3.67
2018-07-14T19:35:06.621Z,3.73
2018-07-14T19:37:35.926Z,8.97
2018-07-14T19:40:04.809Z,5.60
2018-07-14T19:42:33.275Z,17.03
2018-07-14T19:45:01.879Z,22.73
2018-07-14T19:47:30.262Z,20.17
2018-07-14T19:49:58.762Z,22.10
2018-07-14T19:52:27.079Z,20.33
2018-07-14T19:54:55.626Z,15.63
2018-07-14T19:57:23.956Z,15.07
2018-07-14T19:59:52.452Z,13.27
2018-07-14T20:02:20.874Z,12.70
2018-07-14T20:04:49.342Z,25.40
2018-07-14T20:07:17.734Z,19.43
2018-07-14T20:09:46.200Z,12.10
2018-07-14T20:12:14.794Z,11.33
2018-07-14T20:14:43.449Z,15.83
2018-07-14T20:17:11.902Z,11.43
2018-07-14T20:19:40.353Z,9.23
2018-07-14T20:22:08.727Z,12.57
2018-07-14T20:24:37.178Z,10.63
2018-07-14T20:27:05.731Z,9.23
2018-07-14T20:29:34.255Z,9.03
2018-07-14T20:32:02.617Z,18.57
2018-07-14T20:34:31.065Z,10.80
2018-07-14T20:36:59.642Z,10.27
2018-07-14T20:39:27.981Z,9.30
2018-07-14T20:41:57.113Z,8.40
2018-07-14T20:44:25.492Z,13.30
2018-07-14T20:46:53.978Z,6.33
2018-07-14T20:49:22.351Z,13.63
2018-07-14T20:51:50.742Z,10.43
2018-07-14T20:54:19.394Z,10.00
2018-07-14T20:56:47.797Z,13.17
2018-07-14T20:59:16.136Z,13.07
2018-07-14T21:01:44.481Z,9.87
2018-07-14T21:04:12.893Z,11.63
2018-07-14T21:06:41.237Z,11.33
2018-07-14T21:09:09.560Z,9.00
2018-07-14T21:11:37.958Z,9.10
2018-07-14T21:14:06.480Z,8.50
2018-07-14T21:16:34.843Z,7.33
2018-07-14T21:19:03.653Z,7.73
2018-07-14T21:21:32.050Z,6.40
2018-07-14T21:24:00.385Z,7.00
2018-07-14T21:26:28.761Z,6.80
2018-07-14T21:28:57.166Z,6.07
2018-07-14T21:31:25.489Z,7.80
2018-07-14T21:33:53.836Z,6.40
2018-07-14T21:36:22.228Z,7.03
2018-07-14T21:38:50.649Z,8.03
2018-07-14T21:41:19.067Z,10.10
2018-07-14T21:43:47.534Z,7.50
2018-07-14T21:46:16.072Z,7.03
2018-07-14T21:48:44.669Z,6.13
2018-07-14T21:51:13.065Z,9.17
2018-07-14T21:53:41.440Z,6.63
2018-07-14T21:56:09.832Z,6.47
2018-07-14T21:58:38.194Z,6.80
2018-07-14T22:01:12.258Z,6.80
2018-07-14T22:03:40.667Z,6.83
2018-07-14T22:06:09.026Z,8.73
2018-07-14T22:08:37.385Z,7.27
2018-07-14T22:11:05.942Z,6.80
2018-07-14T22:13:34.382Z,7.30
2018-07-14T22:16:02.772Z,7.60
2018-07-14T22:18:31.155Z,7.00
2018-07-14T22:20:59.525Z,8.33
2018-07-14T22:23:27.927Z,8.63
2018-07-14T22:25:56.249Z,10.93
2018-07-14T22:28:24.602Z,8.10
2018-07-14T22:30:53.051Z,8.33
2018-07-14T22:33:21.387Z,7.33
2018-07-14T22:35:49.823Z,8.70
2018-07-14T22:38:18.186Z,8.47
2018-07-14T22:40:46.571Z,7.67
2018-07-14T22:43:15.082Z,8.70
2018-07-14T22:45:43.407Z,8.63
2018-07-14T22:48:11.809Z,8.23
2018-07-14T22:50:40.194Z,8.27
2018-07-14T22:53:08.655Z,8.53
2018-07-14T22:55:37.011Z,8.50
2018-07-14T22:58:05.493Z,9.57
2018-07-14T23:00:33.879Z,9.60
2018-07-14T23:03:02.170Z,8.77
2018-07-14T23:05:30.625Z,9.47
2018-07-14T23:07:59.009Z,8.57
2018-07-14T23:10:27.518Z,7.57
2018-07-14T23:12:55.898Z,8.03
2018-07-14T23:15:24.316Z,8.60
2018-07-14T23:17:52.642Z,9.23
2018-07-14T23:20:20.953Z,7.57
2018-07-14T23:22:49.326Z,9.57
2018-07-14T23:25:17.718Z,8.10
2018-07-14T23:27:46.099Z,7.80
2018-07-14T23:30:14.512Z,7.50
2018-07-14T23:32:42.862Z,8.33
2018-07-14T23:35:11.189Z,8.93
2018-07-14T23:37:39.647Z,8.00
2018-07-14T23:40:08.147Z,8.57
2018-07-14T23:42:36.537Z,8.57
2018-07-14T23:45:05.434Z,8.47
2018-07-14T23:47:33.845Z,7.63
2018-07-14T23:50:02.457Z,10.47
2018-07-14T23:52:30.862Z,15.43
2018-07-14T23:54:59.304Z,9.43
2018-07-14T23:57:27.682Z,10.97
2018-07-14T23:59:56.087Z,11.13
